sensor_id;sensor_type;location;lat;lon;timestamp;pressure;altitude;pressure_sealevel;temperature;humidity
62849;BME280;48941;49.516;8.286;2022-12-29T00:02:24;99749.56;;;11.02;81.68
62849;BME280;48941;49.516;8.286;2022-12-29T00:04:54;99763.88;;;11.01;81.72
62849;BME280;48941;49.516;8.286;2022-12-29T00:07:22;99761.06;;;11.03;82.03
62849;BME280;48941;49.516;8.286;2022-12-29T00:09:50;99763.03;;;11.01;82.12
62849;BME280;48941;49.516;8.286;2022-12-29T00:12:18;99757.00;;;11.08;81.97
62849;BME280;48941;49.516;8.286;2022-12-29T00:14:46;99754.88;;;11.02;82.71
62849;BME280;48941;49.516;8.286;2022-12-29T00:17:32;99761.78;;;11.05;82.48
62849;BME280;48941;49.516;8.286;2022-12-29T00:20:01;99747.88;;;11.21;82.37
62849;BME280;48941;49.516;8.286;2022-12-29T00:22:47;99753.78;;;11.14;82.60
62849;BME280;48941;49.516;8.286;2022-12-29T00:25:32;99747.88;;;11.21;81.85
62849;BME280;48941;49.516;8.286;2022-12-29T00:28:17;99751.38;;;11.21;82.57
62849;BME280;48941;49.516;8.286;2022-12-29T00:31:07;99763.72;;;11.12;82.85
62849;BME280;48941;49.516;8.286;2022-12-29T00:34:01;99745.03;;;11.22;82.05
62849;BME280;48941;49.516;8.286;2022-12-29T00:36:48;99763.28;;;11.27;81.82
62849;BME280;48941;49.516;8.286;2022-12-29T00:39:18;99757.66;;;11.20;82.26
62849;BME280;48941;49.516;8.286;2022-12-29T00:42:04;99749.53;;;11.31;81.36
62849;BME280;48941;49.516;8.286;2022-12-29T00:44:49;99753.31;;;11.29;81.78
62849;BME280;48941;49.516;8.286;2022-12-29T00:47:17;99758.34;;;11.32;81.67
62849;BME280;48941;49.516;8.286;2022-12-29T00:49:45;99750.78;;;11.27;81.49
62849;BME280;48941;49.516;8.286;2022-12-29T00:52:14;99748.00;;;11.29;81.73
62849;BME280;48941;49.516;8.286;2022-12-29T00:54:42;99748.97;;;11.28;81.53
62849;BME280;48941;49.516;8.286;2022-12-29T00:57:12;99747.28;;;11.27;81.79
62849;BME280;48941;49.516;8.286;2022-12-29T00:59:40;99748.00;;;11.29;82.20
62849;BME280;48941;49.516;8.286;2022-12-29T01:02:09;99742.66;;;11.39;81.92
62849;BME280;48941;49.516;8.286;2022-12-29T01:04:37;99737.00;;;11.42;81.92
62849;BME280;48941;49.516;8.286;2022-12-29T01:07:05;99743.16;;;11.42;81.49
62849;BME280;48941;49.516;8.286;2022-12-29T01:09:34;99739.13;;;11.38;81.63
62849;BME280;48941;49.516;8.286;2022-12-29T01:12:20;99733.66;;;11.40;81.71
62849;BME280;48941;49.516;8.286;2022-12-29T01:15:09;99732.56;;;11.32;82.27
62849;BME280;48941;49.516;8.286;2022-12-29T01:17:37;99734.66;;;11.29;82.93
62849;BME280;48941;49.516;8.286;2022-12-29T01:20:06;99742.66;;;11.39;82.77
62849;BME280;48941;49.516;8.286;2022-12-29T01:22:34;99737.69;;;11.44;82.72
62849;BME280;48941;49.516;8.286;2022-12-29T01:25:04;99730.84;;;11.41;83.19
62849;BME280;48941;49.516;8.286;2022-12-29T01:27:32;99738.31;;;11.28;83.83
62849;BME280;48941;49.516;8.286;2022-12-29T01:30:00;99736.31;;;11.30;84.28
62849;BME280;48941;49.516;8.286;2022-12-29T01:32:28;99746.72;;;11.33;84.38
62849;BME280;48941;49.516;8.286;2022-12-29T01:34:56;99751.50;;;11.29;84.39
62849;BME280;48941;49.516;8.286;2022-12-29T01:37:24;99753.31;;;11.29;84.85
62849;BME280;48941;49.516;8.286;2022-12-29T01:39:52;99752.50;;;11.28;84.54
62849;BME280;48941;49.516;8.286;2022-12-29T01:42:24;99749.38;;;11.33;84.63
62849;BME280;48941;49.516;8.286;2022-12-29T01:44:55;99740.00;;;11.29;84.66
62849;BME280;48941;49.516;8.286;2022-12-29T01:47:33;99734.66;;;11.39;83.87
62849;BME280;48941;49.516;8.286;2022-12-29T01:50:05;99754.16;;;11.29;84.20
62849;BME280;48941;49.516;8.286;2022-12-29T01:52:36;99754.47;;;11.26;83.93
62849;BME280;48941;49.516;8.286;2022-12-29T01:55:09;99749.13;;;11.26;84.18
62849;BME280;48941;49.516;8.286;2022-12-29T01:57:40;99741.41;;;11.23;84.79
62849;BME280;48941;49.516;8.286;2022-12-29T02:00:11;99737.72;;;11.34;83.55
62849;BME280;48941;49.516;8.286;2022-12-29T02:02:41;99745.03;;;11.32;83.50
62849;BME280;48941;49.516;8.286;2022-12-29T02:05:14;99748.50;;;11.42;83.50
62849;BME280;48941;49.516;8.286;2022-12-29T02:07:43;99750.22;;;11.33;83.50
62849;BME280;48941;49.516;8.286;2022-12-29T02:10:12;99747.66;;;11.42;82.63
62849;BME280;48941;49.516;8.286;2022-12-29T02:12:42;99746.41;;;11.46;82.35
62849;BME280;48941;49.516;8.286;2022-12-29T02:15:10;99744.31;;;11.40;82.62
62849;BME280;48941;49.516;8.286;2022-12-29T02:17:50;99750.19;;;11.43;82.57
62849;BME280;48941;49.516;8.286;2022-12-29T02:21:03;99755.09;;;11.38;82.70
62849;BME280;48941;49.516;8.286;2022-12-29T02:23:54;99750.47;;;11.40;82.51
62849;BME280;48941;49.516;8.286;2022-12-29T02:26:57;99741.94;;;11.46;82.43
62849;BME280;48941;49.516;8.286;2022-12-29T02:29:41;99732.69;;;11.41;82.56
62849;BME280;48941;49.516;8.286;2022-12-29T02:32:24;99726.78;;;11.37;82.74
62849;BME280;48941;49.516;8.286;2022-12-29T02:35:01;99715.31;;;11.27;83.63
62849;BME280;48941;49.516;8.286;2022-12-29T02:37:38;99713.03;;;11.32;82.98
62849;BME280;48941;49.516;8.286;2022-12-29T02:40:16;99710.22;;;11.33;82.89
62849;BME280;48941;49.516;8.286;2022-12-29T02:42:50;99716.81;;;11.39;82.22
62849;BME280;48941;49.516;8.286;2022-12-29T02:45:21;99709.38;;;11.43;82.38
62849;BME280;48941;49.516;8.286;2022-12-29T02:48:01;99714.41;;;11.46;81.90
62849;BME280;48941;49.516;8.286;2022-12-29T02:50:34;99712.44;;;11.48;81.90
62849;BME280;48941;49.516;8.286;2022-12-29T02:53:07;99711.84;;;11.54;80.95
62849;BME280;48941;49.516;8.286;2022-12-29T02:55:37;99715.38;;;11.54;81.48
62849;BME280;48941;49.516;8.286;2022-12-29T02:58:16;99703.44;;;11.49;81.36
62849;BME280;48941;49.516;8.286;2022-12-29T03:00:54;99704.44;;;11.48;81.48
62849;BME280;48941;49.516;8.286;2022-12-29T03:03:34;99699.09;;;11.48;81.45
62849;BME280;48941;49.516;8.286;2022-12-29T03:06:20;99707.41;;;11.45;80.97
62849;BME280;48941;49.516;8.286;2022-12-29T03:08:55;99701.22;;;11.44;81.30
62849;BME280;48941;49.516;8.286;2022-12-29T03:11:31;99692.38;;;11.44;80.52
62849;BME280;48941;49.516;8.286;2022-12-29T03:14:27;99683.38;;;11.54;79.75
62849;BME280;48941;49.516;8.286;2022-12-29T03:17:24;99691.25;;;11.46;80.03
62849;BME280;48941;49.516;8.286;2022-12-29T03:20:01;99690.00;;;11.41;80.20
62849;BME280;48941;49.516;8.286;2022-12-29T03:22:34;99694.78;;;11.37;79.90
62849;BME280;48941;49.516;8.286;2022-12-29T03:25:08;99684.56;;;11.32;80.50
62849;BME280;48941;49.516;8.286;2022-12-29T03:27:46;99684.56;;;11.32;80.14
62849;BME280;48941;49.516;8.286;2022-12-29T03:30:14;99691.97;;;11.39;79.16
62849;BME280;48941;49.516;8.286;2022-12-29T03:32:47;99681.81;;;11.52;78.42
62849;BME280;48941;49.516;8.286;2022-12-29T03:35:20;99665.81;;;11.52;77.46
62849;BME280;48941;49.516;8.286;2022-12-29T03:37:52;99664.28;;;11.49;77.76
62849;BME280;48941;49.516;8.286;2022-12-29T03:40:23;99651.06;;;11.57;76.53
62849;BME280;48941;49.516;8.286;2022-12-29T03:42:53;99667.97;;;11.48;76.93
62849;BME280;48941;49.516;8.286;2022-12-29T03:45:21;99671.16;;;11.52;76.40
62849;BME280;48941;49.516;8.286;2022-12-29T03:47:50;99657.22;;;11.58;76.32
62849;BME280;48941;49.516;8.286;2022-12-29T03:50:20;99660.47;;;11.52;76.73
62849;BME280;48941;49.516;8.286;2022-12-29T03:52:48;99662.44;;;11.50;76.58
62849;BME280;48941;49.516;8.286;2022-12-29T03:55:16;99653.25;;;11.44;76.83
62849;BME280;48941;49.516;8.286;2022-12-29T03:57:44;99653.25;;;11.44;76.77
62849;BME280;48941;49.516;8.286;2022-12-29T04:00:13;99655.50;;;11.39;76.63
62849;BME280;48941;49.516;8.286;2022-12-29T04:02:41;99667.28;;;11.36;76.92
62849;BME280;48941;49.516;8.286;2022-12-29T04:05:09;99670.66;;;11.39;77.13
62849;BME280;48941;49.516;8.286;2022-12-29T04:07:39;99659.09;;;11.48;76.19
62849;BME280;48941;49.516;8.286;2022-12-29T04:10:08;99661.06;;;11.46;76.34
62849;BME280;48941;49.516;8.286;2022-12-29T04:12:36;99652.06;;;11.56;75.70
62849;BME280;48941;49.516;8.286;2022-12-29T04:15:05;99662.28;;;11.61;75.30
62849;BME280;48941;49.516;8.286;2022-12-29T04:17:33;99653.72;;;11.57;75.73
62849;BME280;48941;49.516;8.286;2022-12-29T04:20:01;99648.00;;;11.52;75.75
62849;BME280;48941;49.516;8.286;2022-12-29T04:22:44;99645.84;;;11.56;75.91
62849;BME280;48941;49.516;8.286;2022-12-29T04:25:12;99639.78;;;11.64;75.81
62849;BME280;48941;49.516;8.286;2022-12-29T04:27:40;99635.56;;;11.71;75.80
62849;BME280;48941;49.516;8.286;2022-12-29T04:30:09;99649.13;;;11.77;76.03
62849;BME280;48941;49.516;8.286;2022-12-29T04:32:39;99643.56;;;11.71;76.17
62849;BME280;48941;49.516;8.286;2022-12-29T04:35:07;99636.97;;;11.65;76.60
62849;BME280;48941;49.516;8.286;2022-12-29T04:37:35;99627.31;;;11.64;76.92
62849;BME280;48941;49.516;8.286;2022-12-29T04:40:06;99645.25;;;11.62;77.26
62849;BME280;48941;49.516;8.286;2022-12-29T04:42:34;99636.53;;;11.70;76.53
62849;BME280;48941;49.516;8.286;2022-12-29T04:45:02;99649.59;;;11.73;76.22
62849;BME280;48941;49.516;8.286;2022-12-29T04:47:30;99647.19;;;11.70;76.48
62849;BME280;48941;49.516;8.286;2022-12-29T04:49:58;99644.47;;;11.80;75.49
62849;BME280;48941;49.516;8.286;2022-12-29T04:52:26;99639.16;;;11.80;76.08
62849;BME280;48941;49.516;8.286;2022-12-29T04:54:54;99646.59;;;11.76;76.29
62849;BME280;48941;49.516;8.286;2022-12-29T04:57:23;99629.38;;;11.70;76.41
62849;BME280;48941;49.516;8.286;2022-12-29T04:59:51;99641.66;;;11.81;75.15
62849;BME280;48941;49.516;8.286;2022-12-29T05:02:19;99653.09;;;11.73;75.66
62849;BME280;48941;49.516;8.286;2022-12-29T05:04:47;99649.97;;;11.78;75.78
62849;BME280;48941;49.516;8.286;2022-12-29T05:07:15;99642.47;;;11.91;75.04
62849;BME280;48941;49.516;8.286;2022-12-29T05:09:43;99640.81;;;11.90;75.06
62849;BME280;48941;49.516;8.286;2022-12-29T05:12:11;99639.81;;;11.91;75.07
62849;BME280;48941;49.516;8.286;2022-12-29T05:14:41;99632.34;;;11.95;74.66
62849;BME280;48941;49.516;8.286;2022-12-29T05:17:09;99643.88;;;11.86;74.94
62849;BME280;48941;49.516;8.286;2022-12-29T05:19:36;99646.66;;;11.94;74.42
62849;BME280;48941;49.516;8.286;2022-12-29T05:22:04;99653.28;;;11.90;74.37
62849;BME280;48941;49.516;8.286;2022-12-29T05:24:32;99625.19;;;11.95;74.07
62849;BME280;48941;49.516;8.286;2022-12-29T05:27:00;99638.16;;;11.90;73.90
62849;BME280;48941;49.516;8.286;2022-12-29T05:29:28;99643.41;;;12.00;73.87
62849;BME280;48941;49.516;8.286;2022-12-29T05:31:57;99638.66;;;11.94;74.05
62849;BME280;48941;49.516;8.286;2022-12-29T05:34:25;99642.88;;;11.97;73.79
62849;BME280;48941;49.516;8.286;2022-12-29T05:36:53;99633.59;;;12.01;73.71
62849;BME280;48941;49.516;8.286;2022-12-29T05:39:21;99636.16;;;11.92;74.07
62849;BME280;48941;49.516;8.286;2022-12-29T05:41:49;99640.91;;;11.99;73.85
62849;BME280;48941;49.516;8.286;2022-12-29T05:44:17;99641.00;;;12.07;72.93
62849;BME280;48941;49.516;8.286;2022-12-29T05:46:44;99647.63;;;12.03;73.21
62849;BME280;48941;49.516;8.286;2022-12-29T05:49:14;99639.91;;;12.00;73.28
62849;BME280;48941;49.516;8.286;2022-12-29T05:51:42;99635.72;;;11.87;74.05
62849;BME280;48941;49.516;8.286;2022-12-29T05:54:10;99641.66;;;11.91;73.95
62849;BME280;48941;49.516;8.286;2022-12-29T05:56:39;99626.91;;;11.87;74.15
62849;BME280;48941;49.516;8.286;2022-12-29T05:59:07;99628.75;;;11.86;74.39
62849;BME280;48941;49.516;8.286;2022-12-29T06:01:35;99642.56;;;12.00;73.12
62849;BME280;48941;49.516;8.286;2022-12-29T06:04:03;99629.38;;;11.98;73.51
62849;BME280;48941;49.516;8.286;2022-12-29T06:06:33;99636.94;;;12.03;73.33
62849;BME280;48941;49.516;8.286;2022-12-29T06:09:01;99631.28;;;12.06;73.00
62849;BME280;48941;49.516;8.286;2022-12-29T06:11:29;99626.56;;;12.00;73.44
62849;BME280;48941;49.516;8.286;2022-12-29T06:13:57;99634.00;;;11.96;73.66
62849;BME280;48941;49.516;8.286;2022-12-29T06:16:26;99625.72;;;11.99;73.40
62849;BME280;48941;49.516;8.286;2022-12-29T06:18:54;99624.13;;;12.06;72.52
62849;BME280;48941;49.516;8.286;2022-12-29T06:21:22;99624.03;;;11.98;73.13
62849;BME280;48941;49.516;8.286;2022-12-29T06:23:52;99608.41;;;12.03;72.26
62849;BME280;48941;49.516;8.286;2022-12-29T06:26:20;99620.19;;;12.10;71.78
62849;BME280;48941;49.516;8.286;2022-12-29T06:28:48;99604.91;;;12.03;72.00
62849;BME280;48941;49.516;8.286;2022-12-29T06:31:16;99623.59;;;12.03;71.43
62849;BME280;48941;49.516;8.286;2022-12-29T06:33:44;99610.56;;;12.18;70.33
62849;BME280;48941;49.516;8.286;2022-12-29T06:36:15;99618.88;;;12.14;70.18
62849;BME280;48941;49.516;8.286;2022-12-29T06:38:43;99608.97;;;12.25;69.98
62849;BME280;48941;49.516;8.286;2022-12-29T06:41:13;99617.66;;;12.27;69.61
62849;BME280;48941;49.516;8.286;2022-12-29T06:43:42;99607.06;;;12.17;69.81
62849;BME280;48941;49.516;8.286;2022-12-29T06:46:10;99607.59;;;12.21;69.06
62849;BME280;48941;49.516;8.286;2022-12-29T06:48:39;99612.94;;;12.21;69.15
62849;BME280;48941;49.516;8.286;2022-12-29T06:51:08;99602.78;;;12.24;68.82
62849;BME280;48941;49.516;8.286;2022-12-29T06:53:37;99596.84;;;12.30;68.59
62849;BME280;48941;49.516;8.286;2022-12-29T06:56:05;99594.38;;;12.19;69.02
62849;BME280;48941;49.516;8.286;2022-12-29T06:58:35;99592.81;;;12.26;68.78
62849;BME280;48941;49.516;8.286;2022-12-29T07:01:04;99597.66;;;12.31;68.63
62849;BME280;48941;49.516;8.286;2022-12-29T07:03:33;99578.06;;;12.40;67.32
62849;BME280;48941;49.516;8.286;2022-12-29T07:06:01;99592.00;;;12.34;68.65
62849;BME280;48941;49.516;8.286;2022-12-29T07:08:29;99595.28;;;12.28;69.41
62849;BME280;48941;49.516;8.286;2022-12-29T07:10:56;99599.59;;;12.21;69.51
62849;BME280;48941;49.516;8.286;2022-12-29T07:13:25;99602.41;;;12.19;69.92
62849;BME280;48941;49.516;8.286;2022-12-29T07:15:54;99600.19;;;12.14;70.44
62849;BME280;48941;49.516;8.286;2022-12-29T07:18:22;99600.25;;;12.05;70.50
62849;BME280;48941;49.516;8.286;2022-12-29T07:20:50;99610.25;;;12.03;70.40
62849;BME280;48941;49.516;8.286;2022-12-29T07:23:18;99607.78;;;11.91;71.19
62849;BME280;48941;49.516;8.286;2022-12-29T07:25:46;99614.13;;;11.90;71.58
62849;BME280;48941;49.516;8.286;2022-12-29T07:28:14;99609.88;;;11.88;71.52
62849;BME280;48941;49.516;8.286;2022-12-29T07:30:42;99612.72;;;11.86;71.46
62849;BME280;48941;49.516;8.286;2022-12-29T07:33:12;99612.19;;;11.83;71.55
62849;BME280;48941;49.516;8.286;2022-12-29T07:35:40;99620.69;;;11.96;70.30
62849;BME280;48941;49.516;8.286;2022-12-29T07:38:08;99623.47;;;12.04;70.26
62849;BME280;48941;49.516;8.286;2022-12-29T07:40:36;99629.22;;;12.00;70.65
62849;BME280;48941;49.516;8.286;2022-12-29T07:43:04;99623.41;;;11.86;71.48
62849;BME280;48941;49.516;8.286;2022-12-29T07:45:32;99624.16;;;11.79;72.32
62849;BME280;48941;49.516;8.286;2022-12-29T07:48:00;99634.72;;;11.70;72.54
62849;BME280;48941;49.516;8.286;2022-12-29T07:50:30;99630.06;;;11.72;72.50
62849;BME280;48941;49.516;8.286;2022-12-29T07:52:58;99626.41;;;11.73;72.35
62849;BME280;48941;49.516;8.286;2022-12-29T07:55:26;99628.31;;;11.91;70.36
62849;BME280;48941;49.516;8.286;2022-12-29T07:57:54;99630.50;;;11.95;69.61
62849;BME280;48941;49.516;8.286;2022-12-29T08:00:23;99633.69;;;12.27;68.44
62849;BME280;48941;49.516;8.286;2022-12-29T08:02:51;99636.81;;;12.40;67.70
62849;BME280;48941;49.516;8.286;2022-12-29T08:05:19;99651.16;;;12.39;67.59
62849;BME280;48941;49.516;8.286;2022-12-29T08:07:49;99638.81;;;12.38;67.94
62849;BME280;48941;49.516;8.286;2022-12-29T08:10:18;99662.13;;;12.36;68.22
62849;BME280;48941;49.516;8.286;2022-12-29T08:12:46;99638.19;;;12.44;67.84
62849;BME280;48941;49.516;8.286;2022-12-29T08:15:14;99658.63;;;12.53;67.08
62849;BME280;48941;49.516;8.286;2022-12-29T08:17:42;99660.66;;;12.60;67.09
62849;BME280;48941;49.516;8.286;2022-12-29T08:20:10;99668.38;;;12.63;66.86
62849;BME280;48941;49.516;8.286;2022-12-29T08:22:39;99670.75;;;12.66;66.33
62849;BME280;48941;49.516;8.286;2022-12-29T08:25:09;99664.25;;;12.68;66.55
62849;BME280;48941;49.516;8.286;2022-12-29T08:27:37;99671.13;;;12.71;67.29
62849;BME280;48941;49.516;8.286;2022-12-29T08:30:07;99682.78;;;12.70;67.34
62849;BME280;48941;49.516;8.286;2022-12-29T08:32:35;99669.13;;;12.73;68.11
62849;BME280;48941;49.516;8.286;2022-12-29T08:35:04;99682.09;;;12.68;68.54
62849;BME280;48941;49.516;8.286;2022-12-29T08:37:32;99681.19;;;12.77;67.60
62849;BME280;48941;49.516;8.286;2022-12-29T08:40:00;99682.03;;;12.78;68.13
62849;BME280;48941;49.516;8.286;2022-12-29T08:42:32;99679.00;;;12.72;68.13
62849;BME280;48941;49.516;8.286;2022-12-29T08:45:00;99673.41;;;12.66;68.78
62849;BME280;48941;49.516;8.286;2022-12-29T08:47:29;99675.41;;;12.64;68.60
62849;BME280;48941;49.516;8.286;2022-12-29T08:49:57;99685.16;;;12.73;68.42
62849;BME280;48941;49.516;8.286;2022-12-29T08:52:25;99684.63;;;12.69;68.60
62849;BME280;48941;49.516;8.286;2022-12-29T08:54:53;99687.56;;;12.76;67.96
62849;BME280;48941;49.516;8.286;2022-12-29T08:57:21;99694.03;;;12.73;68.19
62849;BME280;48941;49.516;8.286;2022-12-29T08:59:50;99688.69;;;12.73;69.10
62849;BME280;48941;49.516;8.286;2022-12-29T09:02:18;99705.19;;;12.69;69.76
62849;BME280;48941;49.516;8.286;2022-12-29T09:04:50;99696.09;;;12.62;70.47
62849;BME280;48941;49.516;8.286;2022-12-29T09:07:18;99692.50;;;12.53;70.75
62849;BME280;48941;49.516;8.286;2022-12-29T09:09:46;99696.09;;;12.44;71.54
62849;BME280;48941;49.516;8.286;2022-12-29T09:12:15;99699.34;;;12.38;71.55
62849;BME280;48941;49.516;8.286;2022-12-29T09:14:43;99703.47;;;12.50;70.88
62849;BME280;48941;49.516;8.286;2022-12-29T09:17:15;99700.53;;;12.53;70.50
62849;BME280;48941;49.516;8.286;2022-12-29T09:20:00;99715.03;;;12.50;70.49
62849;BME280;48941;49.516;8.286;2022-12-29T09:22:29;99706.25;;;12.58;70.58
62849;BME280;48941;49.516;8.286;2022-12-29T09:24:57;99707.91;;;12.59;69.85
62849;BME280;48941;49.516;8.286;2022-12-29T09:27:25;99717.47;;;12.62;70.31
62849;BME280;48941;49.516;8.286;2022-12-29T09:29:53;99710.75;;;12.58;70.59
62849;BME280;48941;49.516;8.286;2022-12-29T09:32:22;99707.69;;;12.52;71.12
62849;BME280;48941;49.516;8.286;2022-12-29T09:34:55;99717.53;;;12.52;70.70
62849;BME280;48941;49.516;8.286;2022-12-29T09:37:23;99721.06;;;12.52;71.86
62849;BME280;48941;49.516;8.286;2022-12-29T09:39:51;99736.75;;;12.55;71.99
62849;BME280;48941;49.516;8.286;2022-12-29T09:42:23;99721.59;;;12.38;73.11
62849;BME280;48941;49.516;8.286;2022-12-29T09:45:04;99725.16;;;12.29;73.69
62849;BME280;48941;49.516;8.286;2022-12-29T09:47:34;99747.34;;;12.29;73.77
62849;BME280;48941;49.516;8.286;2022-12-29T09:50:07;99744.38;;;12.32;73.25
62849;BME280;48941;49.516;8.286;2022-12-29T09:52:43;99753.69;;;12.28;72.98
62849;BME280;48941;49.516;8.286;2022-12-29T09:55:14;99746.59;;;12.37;72.98
62849;BME280;48941;49.516;8.286;2022-12-29T09:57:47;99745.63;;;12.38;73.19
62849;BME280;48941;49.516;8.286;2022-12-29T10:00:18;99750.56;;;12.33;72.76
62849;BME280;48941;49.516;8.286;2022-12-29T10:02:50;99747.44;;;12.38;72.62
62849;BME280;48941;49.516;8.286;2022-12-29T10:05:27;99746.88;;;12.34;73.16
62849;BME280;48941;49.516;8.286;2022-12-29T10:08:14;99749.13;;;12.39;73.11
62849;BME280;48941;49.516;8.286;2022-12-29T10:10:50;99765.28;;;12.37;73.08
62849;BME280;48941;49.516;8.286;2022-12-29T10:13:28;99763.50;;;12.28;74.19
62849;BME280;48941;49.516;8.286;2022-12-29T10:16:02;99754.59;;;12.37;73.21
62849;BME280;48941;49.516;8.286;2022-12-29T10:18:52;99746.59;;;12.37;72.79
62849;BME280;48941;49.516;8.286;2022-12-29T10:21:29;99740.56;;;12.35;74.12
62849;BME280;48941;49.516;8.286;2022-12-29T10:24:07;99750.66;;;12.41;73.47
62849;BME280;48941;49.516;8.286;2022-12-29T10:26:40;99755.84;;;12.43;73.42
62849;BME280;48941;49.516;8.286;2022-12-29T10:29:14;99753.63;;;12.38;73.83
62849;BME280;48941;49.516;8.286;2022-12-29T10:31:46;99752.03;;;12.45;72.89
62849;BME280;48941;49.516;8.286;2022-12-29T10:34:22;99754.00;;;12.43;73.32
62849;BME280;48941;49.516;8.286;2022-12-29T10:36:57;99743.72;;;12.48;72.48
62849;BME280;48941;49.516;8.286;2022-12-29T10:39:30;99746.81;;;12.44;72.64
62849;BME280;48941;49.516;8.286;2022-12-29T10:42:08;99767.75;;;12.48;72.38
62849;BME280;48941;49.516;8.286;2022-12-29T10:44:37;99757.06;;;12.48;72.92
62849;BME280;48941;49.516;8.286;2022-12-29T10:47:09;99750.34;;;12.44;72.73
62849;BME280;48941;49.516;8.286;2022-12-29T10:49:42;99745.00;;;12.44;72.18
62849;BME280;48941;49.516;8.286;2022-12-29T10:52:11;99754.00;;;12.43;72.05
62849;BME280;48941;49.516;8.286;2022-12-29T10:54:45;99748.19;;;12.48;72.00
62849;BME280;48941;49.516;8.286;2022-12-29T10:57:25;99749.16;;;12.57;70.66
62849;BME280;48941;49.516;8.286;2022-12-29T10:59:54;99755.41;;;12.65;70.95
62849;BME280;48941;49.516;8.286;2022-12-29T11:05:23;99758.38;;;12.44;75.00
62849;BME280;48941;49.516;8.286;2022-12-29T11:07:59;99764.47;;;12.37;76.97
62849;BME280;48941;49.516;8.286;2022-12-29T11:10:38;99780.56;;;12.17;78.05
62849;BME280;48941;49.516;8.286;2022-12-29T11:13:16;99782.91;;;12.02;77.83
62849;BME280;48941;49.516;8.286;2022-12-29T11:15:46;99779.69;;;11.99;76.85
62849;BME280;48941;49.516;8.286;2022-12-29T11:18:19;99787.00;;;11.87;78.76
62849;BME280;48941;49.516;8.286;2022-12-29T11:20:51;99780.84;;;11.76;80.17
62849;BME280;48941;49.516;8.286;2022-12-29T11:23:30;99784.53;;;11.66;82.41
62849;BME280;48941;49.516;8.286;2022-12-29T11:26:18;99788.78;;;11.49;83.79
62849;BME280;48941;49.516;8.286;2022-12-29T11:29:05;99776.75;;;11.25;85.21
62849;BME280;48941;49.516;8.286;2022-12-29T11:31:40;99789.81;;;11.19;86.63
62849;BME280;48941;49.516;8.286;2022-12-29T11:34:17;99787.72;;;11.12;87.21
62849;BME280;48941;49.516;8.286;2022-12-29T11:36:46;99787.72;;;11.12;86.96
62849;BME280;48941;49.516;8.286;2022-12-29T11:39:28;99776.34;;;11.10;87.57
62849;BME280;48941;49.516;8.286;2022-12-29T11:41:58;99794.16;;;11.10;87.22
62849;BME280;48941;49.516;8.286;2022-12-29T11:44:27;99783.22;;;11.13;86.83
62849;BME280;48941;49.516;8.286;2022-12-29T11:46:55;99781.25;;;11.15;88.06
62849;BME280;48941;49.516;8.286;2022-12-29T11:49:24;99776.19;;;11.22;88.10
62849;BME280;48941;49.516;8.286;2022-12-29T11:51:55;99775.63;;;11.28;87.85
62849;BME280;48941;49.516;8.286;2022-12-29T11:54:26;99771.41;;;11.35;89.07
62849;BME280;48941;49.516;8.286;2022-12-29T11:56:55;99781.63;;;11.49;83.76
62849;BME280;48941;49.516;8.286;2022-12-29T11:59:40;99778.47;;;11.73;80.17
62849;BME280;48941;49.516;8.286;2022-12-29T12:02:35;99767.06;;;11.81;79.33
62849;BME280;48941;49.516;8.286;2022-12-29T12:05:17;99763.97;;;11.86;79.67
62849;BME280;48941;49.516;8.286;2022-12-29T12:07:51;99766.06;;;11.92;79.04
62849;BME280;48941;49.516;8.286;2022-12-29T12:10:25;99757.19;;;12.01;77.63
62849;BME280;48941;49.516;8.286;2022-12-29T12:13:04;99760.75;;;12.20;77.35
62849;BME280;48941;49.516;8.286;2022-12-29T12:15:37;99761.53;;;12.30;76.03
62849;BME280;48941;49.516;8.286;2022-12-29T12:18:17;99770.03;;;12.43;75.74
62849;BME280;48941;49.516;8.286;2022-12-29T12:20:50;99766.16;;;12.55;74.57
62849;BME280;48941;49.516;8.286;2022-12-29T12:23:30;99766.28;;;12.54;72.66
62849;BME280;48941;49.516;8.286;2022-12-29T12:26:04;99771.81;;;12.52;73.09
62849;BME280;48941;49.516;8.286;2022-12-29T12:28:42;99773.63;;;12.52;72.13
62849;BME280;48941;49.516;8.286;2022-12-29T12:31:18;99773.19;;;12.57;73.08
62849;BME280;48941;49.516;8.286;2022-12-29T12:33:53;99770.13;;;12.51;72.42
62849;BME280;48941;49.516;8.286;2022-12-29T12:39:35;99759.75;;;12.66;71.92
62849;BME280;48941;49.516;8.286;2022-12-29T12:42:19;99761.56;;;12.66;72.33
62849;BME280;48941;49.516;8.286;2022-12-29T12:45:00;99772.25;;;12.66;72.92
62849;BME280;48941;49.516;8.286;2022-12-29T12:47:47;99760.19;;;12.62;72.28
62849;BME280;48941;49.516;8.286;2022-12-29T12:50:31;99759.38;;;12.61;72.22
62849;BME280;48941;49.516;8.286;2022-12-29T12:53:15;99751.66;;;12.58;72.61
62849;BME280;48941;49.516;8.286;2022-12-29T12:56:07;99757.25;;;12.65;71.80
62849;BME280;48941;49.516;8.286;2022-12-29T12:58:45;99748.13;;;12.58;71.30
62849;BME280;48941;49.516;8.286;2022-12-29T13:01:33;99742.56;;;12.51;71.85
62849;BME280;48941;49.516;8.286;2022-12-29T13:04:23;99753.84;;;12.45;71.57
62849;BME280;48941;49.516;8.286;2022-12-29T13:06:58;99748.97;;;12.40;70.28
62849;BME280;48941;49.516;8.286;2022-12-29T13:09:43;99755.91;;;12.33;70.12
62849;BME280;48941;49.516;8.286;2022-12-29T13:12:23;99741.44;;;12.26;69.73
62849;BME280;48941;49.516;8.286;2022-12-29T13:14:59;99738.41;;;12.21;70.64
62849;BME280;48941;49.516;8.286;2022-12-29T13:17:37;99736.47;;;12.13;71.34
62849;BME280;48941;49.516;8.286;2022-12-29T13:20:20;99734.88;;;12.02;72.29
62849;BME280;48941;49.516;8.286;2022-12-29T13:22:56;99738.97;;;11.97;71.69
62849;BME280;48941;49.516;8.286;2022-12-29T13:25:34;99734.34;;;11.89;71.04
62849;BME280;48941;49.516;8.286;2022-12-29T13:28:11;99743.88;;;11.82;71.49
62849;BME280;48941;49.516;8.286;2022-12-29T13:30:50;99743.34;;;11.78;71.69
62849;BME280;48941;49.516;8.286;2022-12-29T13:33:26;99739.84;;;11.77;70.64
62849;BME280;48941;49.516;8.286;2022-12-29T13:36:02;99744.59;;;11.84;69.61